Time;durP1;ratioP1;P1;durP2;ratioP2;P2;SDS_P1;SDS_P2;PMS_P1;PMS_P2;Temp;Humidity;BMP_temperature;BMP_pressure;BME280_temperature;BME280_humidity;BME280_pressure;Samples;Min_cycle;Max_cycle;Signal;HPM_P1;HPM_P2
2022/08/06 00:00:44;;;;;;;2.83;1.10;;;;;;;15.41;65.43;102664.06;5042442;28;20030;-74
2022/08/06 00:03:09;;;;;;;2.75;1.00;;;;;;;15.41;65.90;102666.72;5041849;28;20338;-74
2022/08/06 00:05:34;;;;;;;1.40;1.00;;;;;;;15.38;65.79;102669.44;5041561;28;20037;-74
2022/08/06 00:08:00;;;;;;;2.03;0.93;;;;;;;15.37;65.92;102672.97;5042580;28;20060;-74
2022/08/06 00:10:26;;;;;;;2.08;1.00;;;;;;;15.34;65.86;102660.75;5042290;28;20037;-74
2022/08/06 00:12:52;;;;;;;2.90;1.23;;;;;;;15.34;65.78;102673.09;5042321;28;20052;-74
2022/08/06 00:15:18;;;;;;;5.38;1.27;;;;;;;15.31;65.77;102663.47;5040938;28;20029;-74
2022/08/06 00:17:44;;;;;;;2.03;1.20;;;;;;;15.31;66.06;102665.25;5042159;28;20072;-74
2022/08/06 00:20:15;;;;;;;2.25;1.00;;;;;;;15.29;65.99;102667.09;5042556;28;20022;-74
2022/08/06 00:22:40;;;;;;;2.03;1.08;;;;;;;15.28;65.90;102673.28;5041984;28;20352;-74
2022/08/06 00:25:07;;;;;;;1.75;1.05;;;;;;;15.26;66.17;102676.00;5040780;28;20028;-74
2022/08/06 00:27:33;;;;;;;1.05;0.93;;;;;;;15.25;65.92;102684.81;5044952;28;20093;-74
2022/08/06 00:29:59;;;;;;;2.72;1.08;;;;;;;15.23;65.99;102686.63;5044434;28;20045;-74
2022/08/06 00:32:24;;;;;;;2.45;1.10;;;;;;;15.23;65.86;102680.50;5045171;28;20312;-74
2022/08/06 00:34:50;;;;;;;3.55;0.88;;;;;;;15.21;65.97;102693.72;5045759;28;20033;-74
2022/08/06 00:37:15;;;;;;;1.25;0.90;;;;;;;15.20;66.10;102697.28;5043625;28;20033;-74
2022/08/06 00:39:41;;;;;;;1.20;1.05;;;;;;;15.18;66.17;102695.59;5043888;28;20041;-74
2022/08/06 00:42:07;;;;;;;2.92;1.13;;;;;;;15.16;66.58;102701.78;5045831;28;20030;-74
2022/08/06 00:44:32;;;;;;;1.92;1.02;;;;;;;15.15;66.59;102696.53;5044612;28;20064;-74
2022/08/06 00:46:59;;;;;;;1.75;1.35;;;;;;;15.13;66.50;102699.25;5044019;28;20033;-74
2022/08/06 00:49:24;;;;;;;1.55;1.25;;;;;;;15.12;66.60;102697.50;5044749;28;20038;-74
2022/08/06 00:51:50;;;;;;;1.15;1.00;;;;;;;15.10;66.51;102694.06;5043990;28;20033;-74
2022/08/06 00:54:15;;;;;;;1.52;1.15;;;;;;;15.09;66.64;102696.75;5027303;28;20036;-74
2022/08/06 00:56:40;;;;;;;2.65;1.27;;;;;;;15.07;66.56;102694.13;5044649;28;20044;-74
2022/08/06 00:59:06;;;;;;;2.05;1.10;;;;;;;15.06;67.10;102700.34;5043586;28;20030;-74
2022/08/06 01:01:32;;;;;;;3.10;1.08;;;;;;;15.05;66.89;102703.88;5044395;28;20030;-74
2022/08/06 01:03:57;;;;;;;3.08;1.33;;;;;;;15.03;66.91;102697.78;5044919;28;20112;-74
2022/08/06 01:06:23;;;;;;;3.80;1.13;;;;;;;15.03;66.87;102696.94;5044783;28;20192;-74
2022/08/06 01:08:48;;;;;;;1.42;1.33;;;;;;;15.02;66.88;102703.09;5043083;28;20041;-74
2022/08/06 01:11:13;;;;;;;2.08;1.35;;;;;;;15.00;67.13;102704.94;5044674;28;20029;-74
2022/08/06 01:13:39;;;;;;;3.22;1.75;;;;;;;15.00;67.33;102704.94;5026979;28;20299;-74
2022/08/06 01:16:46;;;;;;;1.90;1.10;;;;;;;14.98;67.35;102707.59;5044453;28;20064;-74
2022/08/06 01:19:29;;;;;;;3.78;1.33;;;;;;;14.96;66.91;102706.78;5024044;28;20056;-74
2022/08/06 01:22:24;;;;;;;3.55;1.40;;;;;;;14.96;66.96;102715.56;5043399;28;20060;-74
2022/08/06 01:25:14;;;;;;;1.30;1.20;;;;;;;14.95;67.25;102718.25;5044426;28;20248;-74
2022/08/06 01:27:48;;;;;;;3.35;1.33;;;;;;;14.92;67.08;102718.34;5043966;28;20049;-74
2022/08/06 01:30:19;;;;;;;2.33;1.13;;;;;;;14.89;67.39;102716.66;5043729;28;20074;-74
2022/08/06 01:33:14;;;;;;;2.33;1.25;;;;;;;14.88;67.50;102714.94;5043707;28;20048;-74
2022/08/06 01:35:44;;;;;;;2.47;1.30;;;;;;;14.86;67.18;102713.25;5043493;28;20229;-74
2022/08/06 01:38:34;;;;;;;3.78;1.23;;;;;;;14.84;67.50;102709.78;5042427;28;20025;-74
2022/08/06 01:41:04;;;;;;;1.85;1.25;;;;;;;14.83;67.19;102711.56;5035456;28;20029;-74
2022/08/06 01:43:32;;;;;;;1.73;1.08;;;;;;;14.82;67.37;102719.53;5043249;28;20029;-74
2022/08/06 01:45:59;;;;;;;2.53;1.27;;;;;;;14.80;67.21;102719.56;5043481;28;20041;-74
2022/08/06 01:48:27;;;;;;;1.58;1.20;;;;;;;14.78;67.51;102719.59;5043340;28;20029;-74
2022/08/06 01:50:55;;;;;;;2.50;1.27;;;;;;;14.77;67.20;102709.09;5042759;28;20025;-74
2022/08/06 01:53:29;;;;;;;2.33;1.10;;;;;;;14.74;67.62;102710.06;5043168;28;20025;-74
2022/08/06 01:55:58;;;;;;;1.25;1.08;;;;;;;14.74;67.38;102710.06;5042234;28;20634;-74
2022/08/06 01:58:30;;;;;;;1.52;0.98;;;;;;;14.73;67.45;102715.38;5043074;28;20033;-74
2022/08/06 02:00:57;;;;;;;4.43;1.30;;;;;;;14.72;67.42;102711.00;5043757;28;20025;-74
2022/08/06 02:03:39;;;;;;;1.55;1.30;;;;;;;14.71;67.53;102717.19;5043361;28;20029;-74
2022/08/06 02:06:06;;;;;;;2.00;1.45;;;;;;;14.70;67.38;102712.84;5042864;28;20063;-74
2022/08/06 02:08:34;;;;;;;1.50;1.40;;;;;;;14.68;67.73;102715.50;5043273;28;20068;-74
2022/08/06 02:11:01;;;;;;;1.92;1.20;;;;;;;14.69;67.66;102719.00;5043935;28;20139;-74
2022/08/06 02:13:30;;;;;;;2.15;1.30;;;;;;;14.67;67.67;102708.50;5042748;28;20300;-74
2022/08/06 02:15:56;;;;;;;;;;;;;;;14.65;67.58;102714.72;5043464;28;20044;-74
2022/08/06 02:18:23;;;;;;;1.13;1.00;;;;;;;14.63;67.47;102711.28;5038841;28;19913;-74
2022/08/06 02:20:52;;;;;;;1.10;1.00;;;;;;;14.62;67.33;102715.66;5036910;28;20033;-74
2022/08/06 02:23:21;;;;;;;1.20;1.05;;;;;;;14.60;67.85;102712.22;5036692;28;20431;-74
2022/08/06 02:25:47;;;;;;;;;;;;;;;14.57;67.82;102713.16;5037133;28;20021;-74
2022/08/06 02:28:15;;;;;;;1.85;1.08;;;;;;;14.57;67.80;102707.91;5068036;28;19912;-74
2022/08/06 02:30:44;;;;;;;1.13;0.93;;;;;;;14.55;67.65;102709.69;5036372;28;20029;-74
2022/08/06 02:33:10;;;;;;;1.95;1.25;;;;;;;14.54;67.66;102713.22;5036628;28;20037;-74
2022/08/06 02:35:45;;;;;;;3.53;1.15;;;;;;;14.52;67.59;102709.75;5035103;28;20037;-74
2022/08/06 02:38:23;;;;;;;1.10;0.90;;;;;;;14.51;67.98;102715.91;5036110;28;20312;-74
2022/08/06 02:40:55;;;;;;;2.03;0.85;;;;;;;14.50;67.77;102719.47;5036669;28;20057;-74
2022/08/06 02:43:35;;;;;;;2.05;0.98;;;;;;;14.49;67.85;102716.88;5035921;28;20029;-74
2022/08/06 02:46:19;;;;;;;2.92;1.08;;;;;;;14.48;67.57;102726.56;5036181;28;20033;-74
2022/08/06 02:48:49;;;;;;;1.95;0.90;;;;;;;14.47;67.76;102718.69;5035287;28;20351;-74
2022/08/06 02:51:18;;;;;;;2.85;1.02;;;;;;;14.46;67.78;102719.59;5036786;28;20309;-76
2022/08/06 02:54:10;;;;;;;1.77;0.90;;;;;;;14.43;67.71;102728.47;5036089;28;20029;-76
2022/08/06 02:56:40;;;;;;;3.33;0.82;;;;;;;14.43;67.72;102730.25;5037608;28;20083;-76
2022/08/06 02:59:08;;;;;;;1.05;0.75;;;;;;;14.42;68.10;102731.13;5036258;28;20091;-76
2022/08/06 03:01:41;;;;;;;3.17;1.00;;;;;;;14.41;67.77;102732.91;5036597;28;20026;-76
2022/08/06 03:04:08;;;;;;;1.60;0.88;;;;;;;14.39;67.71;102735.59;5037562;28;20040;-76
2022/08/06 03:06:36;;;;;;;2.78;0.95;;;;;;;14.39;67.82;102734.72;5036921;28;20037;-76
2022/08/06 03:09:04;;;;;;;1.13;0.82;;;;;;;14.37;68.30;102729.50;5036245;28;20045;-76
2022/08/06 03:11:33;;;;;;;1.05;0.95;;;;;;;14.36;68.21;102730.38;5035767;28;20024;-76
2022/08/06 03:14:03;;;;;;;0.95;0.82;;;;;;;14.34;68.24;102724.28;5037271;28;20041;-76
2022/08/06 03:16:35;;;;;;;1.00;0.80;;;;;;;14.34;68.01;102729.56;5036611;28;20037;-76
2022/08/06 03:19:02;;;;;;;0.70;0.70;;;;;;;14.33;68.35;102735.72;5036942;28;20053;-76
2022/08/06 03:21:30;;;;;;;1.33;0.80;;;;;;;14.32;68.24;102736.66;5037158;28;20029;-76
2022/08/06 03:23:58;;;;;;;1.52;0.88;;;;;;;14.33;68.15;102732.25;5037056;28;20034;-76
2022/08/06 03:26:29;;;;;;;1.73;1.05;;;;;;;14.30;68.44;102727.94;5035506;28;20044;-76
2022/08/06 03:28:55;;;;;;;1.95;1.00;;;;;;;14.30;68.39;102729.72;5036979;28;20370;-76
2022/08/06 03:31:23;;;;;;;1.50;1.00;;;;;;;14.29;68.52;102727.97;5036858;28;20099;-76
2022/08/06 03:33:50;;;;;;;3.25;1.33;;;;;;;14.30;68.40;102729.72;5037516;28;20052;-76
2022/08/06 03:36:16;;;;;;;0.73;0.73;;;;;;;14.30;68.62;102737.63;5036817;28;20033;-76
2022/08/06 03:38:46;;;;;;;0.93;0.70;;;;;;;14.29;68.40;102743.78;5035380;28;20048;-76
2022/08/06 03:41:13;;;;;;;0.60;0.60;;;;;;;14.28;68.53;102748.19;5036982;28;20284;-76
2022/08/06 03:43:38;;;;;;;1.90;1.02;;;;;;;14.27;68.69;102751.72;5036559;28;20033;-76
2022/08/06 03:46:05;;;;;;;1.60;1.10;;;;;;;14.26;68.27;102750.00;5035868;28;20252;-76
2022/08/06 03:48:39;;;;;;;0.82;0.82;;;;;;;14.25;68.49;102747.41;5036178;28;20109;-76
2022/08/06 03:51:19;;;;;;;0.90;0.82;;;;;;;14.25;68.36;102747.41;5035505;28;20075;-76
2022/08/06 03:53:47;;;;;;;1.60;0.80;;;;;;;14.22;68.75;102745.69;5036441;28;20036;-76
2022/08/06 03:56:20;;;;;;;1.70;0.75;;;;;;;14.20;68.46;102740.44;5035471;28;20037;-76
2022/08/06 03:58:47;;;;;;;1.60;0.63;;;;;;;14.20;68.57;102748.34;5036706;28;20056;-76
2022/08/06 04:01:20;;;;;;;1.63;0.90;;;;;;;14.20;68.82;102752.78;5039704;28;20040;-76
2022/08/06 04:03:46;;;;;;;1.98;1.08;;;;;;;14.18;68.64;102752.81;5040537;28;20025;-76
2022/08/06 04:06:12;;;;;;;2.58;0.90;;;;;;;14.16;68.53;102751.97;5038964;28;20132;-76
2022/08/06 04:08:40;;;;;;;1.08;0.90;;;;;;;14.16;68.47;102756.41;5040591;28;20513;-76
2022/08/06 04:11:07;;;;;;;0.82;0.82;;;;;;;14.15;68.86;102762.56;5039357;28;20101;-76
2022/08/06 04:13:32;;;;;;;0.90;0.80;;;;;;;14.13;68.99;102757.31;5039906;28;20044;-76
2022/08/06 04:15:58;;;;;;;2.20;0.88;;;;;;;14.13;68.94;102759.09;5040813;28;20052;-76
2022/08/06 04:18:27;;;;;;;1.80;1.00;;;;;;;14.11;68.65;102751.22;5038582;28;20362;-76
2022/08/06 04:20:56;;;;;;;0.95;0.80;;;;;;;14.11;68.63;102753.00;5039185;28;20049;-76
2022/08/06 04:23:22;;;;;;;1.30;1.00;;;;;;;14.09;68.69;102757.44;5040023;28;20105;-76
2022/08/06 04:25:53;;;;;;;3.05;1.10;;;;;;;14.08;68.97;102760.97;5040246;28;20052;-76
2022/08/06 04:28:20;;;;;;;1.30;0.90;;;;;;;14.07;68.57;102756.63;5039844;28;20420;-76
2022/08/06 04:30:47;;;;;;;1.50;0.90;;;;;;;14.07;68.61;102760.13;5038904;28;20060;-76
2022/08/06 04:33:15;;;;;;;1.60;0.90;;;;;;;14.06;68.75;102757.53;5039931;28;20431;-76
2022/08/06 04:35:41;;;;;;;2.50;0.82;;;;;;;14.05;68.62;102759.31;5040248;28;20029;-76
2022/08/06 04:38:08;;;;;;;3.08;1.25;;;;;;;14.04;68.57;102757.56;5031490;28;20108;-76
2022/08/06 04:40:36;;;;;;;0.80;0.77;;;;;;;14.02;68.66;102757.63;5019540;28;20037;-76
2022/08/06 04:43:05;;;;;;;1.88;0.90;;;;;;;14.02;68.73;102757.63;5025828;28;20047;-76
2022/08/06 04:45:32;;;;;;;1.13;0.90;;;;;;;14.02;68.80;102762.00;5018260;28;20037;-76
2022/08/06 04:47:59;;;;;;;1.10;0.90;;;;;;;14.00;68.97;102767.31;5033702;28;20067;-76
2022/08/06 04:50:24;;;;;;;0.82;0.82;;;;;;;14.00;69.01;102763.81;5018639;28;20336;-76
2022/08/06 04:52:50;;;;;;;1.02;0.93;;;;;;;14.00;69.08;102775.19;5050399;28;20049;-76
2022/08/06 04:55:19;;;;;;;1.10;0.85;;;;;;;14.00;69.41;102784.88;5017877;28;20061;-76
2022/08/06 04:57:45;;;;;;;0.90;0.80;;;;;;;14.01;69.33;102786.63;5018558;28;20038;-76
2022/08/06 05:00:10;;;;;;;2.05;0.82;;;;;;;14.00;69.17;102780.47;5033451;28;20060;-76
2022/08/06 05:02:36;;;;;;;0.88;0.80;;;;;;;13.99;69.06;102784.03;5018473;28;20042;-76
2022/08/06 05:05:01;;;;;;;1.38;0.90;;;;;;;13.99;69.23;102788.44;5034080;28;20270;-76
2022/08/06 05:07:32;;;;;;;1.70;0.80;;;;;;;13.99;69.12;102793.72;5017494;28;20395;-76
2022/08/06 05:09:59;;;;;;;1.10;0.80;;;;;;;13.99;69.09;102791.06;5017876;28;20038;-76
2022/08/06 05:12:41;;;;;;;0.98;0.65;;;;;;;13.99;69.16;102793.72;5017386;28;20065;-76
2022/08/06 05:15:13;;;;;;;0.80;0.80;;;;;;;13.97;69.50;102796.38;5018428;28;20037;-76
2022/08/06 05:17:45;;;;;;;2.70;1.42;;;;;;;13.97;69.73;102796.38;5017545;28;20083;-76
2022/08/06 05:20:18;;;;;;;0.88;0.88;;;;;;;13.98;69.75;102799.88;5017902;28;20037;-76
2022/08/06 05:22:49;;;;;;;2.28;0.90;;;;;;;13.97;69.73;102796.38;5017864;28;20073;-76
2022/08/06 05:25:15;;;;;;;0.80;0.80;;;;;;;13.97;69.74;102796.38;5049668;28;20053;-76
2022/08/06 05:27:41;;;;;;;1.95;1.02;;;;;;;13.98;69.82;102802.50;5016553;28;20052;-76
2022/08/06 05:30:08;;;;;;;2.80;1.10;;;;;;;13.97;70.10;102799.00;5035252;28;20187;-76
2022/08/06 05:32:45;;;;;;;0.70;0.70;;;;;;;13.99;70.31;102818.28;5037455;28;20048;-76
2022/08/06 05:35:11;;;;;;;1.25;0.80;;;;;;;13.99;70.73;102812.16;5037440;28;20406;-76
2022/08/06 05:37:37;;;;;;;1.75;1.00;;;;;;;14.00;70.50;102817.34;5052495;28;20376;-76
2022/08/06 05:40:04;;;;;;;2.03;1.00;;;;;;;14.01;70.63;102815.59;5037511;28;20025;-76
2022/08/06 05:42:29;;;;;;;1.95;0.90;;;;;;;14.01;71.33;102821.72;5036367;28;20072;-76
2022/08/06 05:44:55;;;;;;;1.00;0.90;;;;;;;14.02;71.04;102826.13;5035908;28;20344;-76
2022/08/06 05:47:23;;;;;;;1.73;1.02;;;;;;;14.03;71.16;102824.34;5037303;28;20037;-76
2022/08/06 05:49:57;;;;;;;1.17;0.90;;;;;;;14.04;71.07;102833.94;5036879;28;20025;-76
2022/08/06 05:52:37;;;;;;;1.20;0.90;;;;;;;14.05;71.28;102827.78;5036960;28;20033;-76
2022/08/06 05:55:08;;;;;;;0.60;0.60;;;;;;;14.05;71.61;102827.78;5036666;28;20041;-76
2022/08/06 05:57:45;;;;;;;1.35;0.90;;;;;;;14.06;71.99;102832.19;5036628;28;20255;-76
2022/08/06 06:00:15;;;;;;;2.17;0.98;;;;;;;14.07;71.99;102833.88;5036540;28;20033;-76
2022/08/06 06:02:47;;;;;;;0.75;0.63;;;;;;;14.09;71.77;102839.13;5037334;28;20044;-76
2022/08/06 06:05:13;;;;;;;1.83;0.90;;;;;;;14.11;71.69;102839.94;5036405;28;20037;-76
2022/08/06 06:07:39;;;;;;;2.05;0.82;;;;;;;14.13;71.77;102843.41;5035468;28;20024;-76
2022/08/06 06:10:06;;;;;;;0.77;0.77;;;;;;;14.13;72.01;102846.91;5036673;28;20080;-76
2022/08/06 06:12:33;;;;;;;0.70;0.70;;;;;;;14.15;72.32;102850.41;5034674;28;20037;-76
2022/08/06 06:15:02;;;;;;;2.17;0.90;;;;;;;14.17;72.44;102850.34;5036412;28;20333;-76
2022/08/06 06:17:36;;;;;;;0.90;0.80;;;;;;;14.18;72.48;102855.56;5035928;28;20283;-76
2022/08/06 06:20:28;;;;;;;1.73;1.00;;;;;;;14.20;72.55;102860.81;5035124;28;20044;-76
2022/08/06 06:23:01;;;;;;;0.82;0.82;;;;;;;14.21;72.94;102847.59;5034612;28;20299;-76
2022/08/06 06:25:33;;;;;;;1.30;0.80;;;;;;;14.24;72.86;102856.34;5035655;28;20249;-76
2022/08/06 06:28:17;;;;;;;0.52;0.52;;;;;;;14.26;72.95;102860.69;5036006;28;20119;-76
2022/08/06 06:31:10;;;;;;;0.73;0.73;;;;;;;14.28;72.72;102858.88;5035679;28;20038;-76
2022/08/06 06:33:47;;;;;;;0.73;0.70;;;;;;;14.30;73.14;102858.84;5030063;28;20059;-76
2022/08/06 06:36:51;;;;;;;1.10;0.68;;;;;;;14.32;73.14;102859.66;5032855;28;20155;-76
2022/08/06 06:39:48;;;;;;;2.45;0.82;;;;;;;14.33;73.60;102859.59;5031627;28;20044;-76
2022/08/06 06:42:22;;;;;;;1.27;0.70;;;;;;;14.34;73.59;102865.75;5034304;28;20117;-76
2022/08/06 06:45:02;;;;;;;0.60;0.60;;;;;;;14.36;74.11;102870.09;5036227;28;20344;-76
2022/08/06 06:47:36;;;;;;;0.70;0.70;;;;;;;14.39;73.92;102869.16;5035072;28;20082;-76
2022/08/06 06:50:11;;;;;;;1.80;0.60;;;;;;;14.40;74.17;102874.38;5026080;28;20030;-76
2022/08/06 06:52:43;;;;;;;2.00;0.82;;;;;;;14.43;74.12;102872.59;5022780;28;20041;-76
2022/08/06 06:55:32;;;;;;;1.33;0.95;;;;;;;14.46;74.01;102872.50;5035236;28;20090;-76
2022/08/06 06:58:06;;;;;;;0.47;0.40;;;;;;;14.50;73.66;102871.53;5034706;28;20340;-76
2022/08/06 07:00:33;;;;;;;1.42;0.63;;;;;;;14.52;73.67;102867.09;5033549;28;20017;-76
2022/08/06 07:02:59;;;;;;;2.03;0.50;;;;;;;14.55;73.50;102880.16;5035599;28;20347;-76
2022/08/06 07:05:26;;;;;;;0.95;0.60;;;;;;;14.57;73.24;102868.72;5016997;28;20293;-76
2022/08/06 07:07:52;;;;;;;3.22;0.73;;;;;;;14.61;72.72;102869.53;5031359;28;20040;-76
2022/08/06 07:10:20;;;;;;;1.08;0.60;;;;;;;14.66;72.64;102867.63;5035558;28;20045;-76
2022/08/06 07:12:47;;;;;;;1.58;0.60;;;;;;;14.69;72.26;102875.44;5036788;28;20077;-76
2022/08/06 07:15:15;;;;;;;1.20;0.68;;;;;;;14.71;72.22;102876.28;5036407;28;20033;-76
2022/08/06 07:17:41;;;;;;;0.85;0.47;;;;;;;14.76;72.00;102881.44;5036475;28;20037;-76
2022/08/06 07:20:10;;;;;;;1.90;0.40;;;;;;;14.83;72.12;102884.81;5035709;28;20018;-76
2022/08/06 07:22:39;;;;;;;1.58;0.52;;;;;;;14.88;72.02;102875.84;5036378;28;20364;-76
2022/08/06 07:25:06;;;;;;;2.15;0.63;;;;;;;14.92;71.83;102879.28;5036682;28;20048;-76
2022/08/06 07:27:39;;;;;;;1.17;0.40;;;;;;;14.94;71.70;102882.75;5034458;28;20047;-76
2022/08/06 07:30:05;;;;;;;4.63;0.50;;;;;;;14.98;71.43;102887.88;5036675;28;20029;-76
2022/08/06 07:32:34;;;;;;;1.50;0.75;;;;;;;15.01;71.49;102891.34;5034652;28;20041;-76
2022/08/06 07:35:00;;;;;;;2.45;0.63;;;;;;;15.04;71.46;102894.75;5026246;28;20029;-76
2022/08/06 07:37:27;;;;;;;2.13;0.77;;;;;;;15.07;70.95;102894.69;5042467;28;20029;-76
2022/08/06 07:39:55;;;;;;;1.40;0.50;;;;;;;15.12;70.54;102895.44;5041908;28;20021;-76
2022/08/06 07:42:24;;;;;;;0.50;0.40;;;;;;;15.13;70.28;102891.00;5026689;28;20042;-76
2022/08/06 07:44:52;;;;;;;1.17;0.40;;;;;;;15.14;70.35;102893.63;5035156;28;20287;-76
2022/08/06 07:47:21;;;;;;;1.52;0.47;;;;;;;15.17;70.42;102892.66;5041890;28;20057;-76
2022/08/06 07:49:52;;;;;;;1.30;0.45;;;;;;;15.19;70.68;102896.13;5035279;28;20049;-76
2022/08/06 07:52:18;;;;;;;0.93;0.45;;;;;;;15.21;70.43;102893.44;5040732;28;20041;-76
2022/08/06 07:54:45;;;;;;;0.45;0.45;;;;;;;15.23;70.75;102896.94;5041625;28;20220;-76
2022/08/06 07:57:12;;;;;;;1.38;0.40;;;;;;;15.24;70.42;102899.50;5039787;28;20040;-76
2022/08/06 07:59:39;;;;;;;2.40;0.50;;;;;;;15.27;70.69;102901.19;5041311;28;20041;-76
2022/08/06 08:02:05;;;;;;;3.28;0.50;;;;;;;15.29;70.66;102900.25;5039653;28;20053;-76
2022/08/06 08:07:16;;;;;;;0.93;0.50;;;;;;;15.37;69.80;102902.66;5040874;28;20040;-76
2022/08/06 08:09:43;;;;;;;2.97;1.17;;;;;;;15.40;69.86;102902.56;5040794;28;20336;-76
2022/08/06 08:12:11;;;;;;;0.95;0.40;;;;;;;15.46;69.17;102902.44;5039454;28;20041;-76
2022/08/06 08:14:38;;;;;;;1.60;0.68;;;;;;;15.50;69.15;102916.41;5040733;28;20290;-76
2022/08/06 08:17:04;;;;;;;0.98;0.70;;;;;;;15.53;68.57;102911.91;5040609;28;20322;-76
2022/08/06 08:19:31;;;;;;;1.48;0.40;;;;;;;15.62;67.31;102917.81;5046251;28;20044;-76
2022/08/06 08:22:18;;;;;;;2.55;0.50;;;;;;;15.68;66.88;102912.34;5043096;28;20083;-76
2022/08/06 08:24:46;;;;;;;6.03;1.10;;;;;;;15.74;66.44;102910.44;5040098;28;20072;-76
2022/08/06 08:27:11;;;;;;;1.58;0.60;;;;;;;15.78;66.75;102910.34;5040103;28;20328;-76
2022/08/06 08:29:39;;;;;;;1.58;0.50;;;;;;;15.79;67.23;102915.59;5040309;28;20373;-76
2022/08/06 08:32:06;;;;;;;4.47;0.70;;;;;;;15.80;66.80;102912.03;5040544;28;20045;-76
2022/08/06 08:34:31;;;;;;;1.92;0.70;;;;;;;15.82;67.31;102918.13;5031319;28;20214;-76
2022/08/06 08:36:57;;;;;;;2.30;0.60;;;;;;;15.84;67.23;102916.28;5039829;28;20033;-76
2022/08/06 08:39:23;;;;;;;1.65;0.57;;;;;;;15.87;67.19;102913.56;5039826;28;20412;-77
2022/08/06 08:42:09;;;;;;;1.27;0.50;;;;;;;15.90;66.53;102921.41;5039407;28;20033;-76
2022/08/06 08:44:35;;;;;;;2.25;0.57;;;;;;;15.95;66.24;102913.34;5039650;28;20064;-76
2022/08/06 08:47:02;;;;;;;0.93;0.50;;;;;;;16.00;66.63;102916.72;5037521;28;20135;-76
2022/08/06 08:49:37;;;;;;;1.33;0.52;;;;;;;16.06;66.70;102915.66;5035120;28;20029;-76
2022/08/06 08:52:04;;;;;;;1.65;0.52;;;;;;;16.12;66.45;102923.41;5035579;28;20033;-77
2022/08/06 08:54:33;;;;;;;1.27;0.60;;;;;;;16.15;66.68;102912.72;5051230;28;20040;-77
2022/08/06 08:56:59;;;;;;;0.55;0.40;;;;;;;16.16;66.78;102917.09;5036883;28;20048;-77
2022/08/06 08:59:25;;;;;;;1.75;0.70;;;;;;;16.17;66.36;102913.56;5034594;28;20049;-77
2022/08/06 09:01:51;;;;;;;0.45;0.38;;;;;;;16.17;66.37;102910.91;5038942;28;20329;-77
2022/08/06 09:04:17;;;;;;;0.55;0.40;;;;;;;16.16;66.31;102916.25;5037198;28;20037;-77
2022/08/06 09:06:43;;;;;;;5.90;1.35;;;;;;;16.17;64.86;102915.31;5035994;28;20033;-77
2022/08/06 09:09:08;;;;;;;1.67;0.43;;;;;;;16.19;64.36;102916.13;5035399;28;20284;-77
2022/08/06 09:11:35;;;;;;;0.68;0.40;;;;;;;16.20;64.25;102918.72;5035839;28;20048;-77
2022/08/06 09:14:05;;;;;;;0.68;0.35;;;;;;;16.25;64.57;102924.75;5031814;28;20110;-77
2022/08/06 09:16:32;;;;;;;0.75;0.30;;;;;;;16.27;64.61;102919.41;5031766;28;20049;-77
2022/08/06 09:19:03;;;;;;;1.13;0.40;;;;;;;16.30;63.92;102916.69;5036070;28;20037;-77
2022/08/06 09:21:29;;;;;;;1.27;0.40;;;;;;;16.34;64.10;102915.66;5035689;28;20269;-77
2022/08/06 09:23:55;;;;;;;2.33;0.43;;;;;;;16.39;64.06;102926.06;5036096;28;20041;-77
2022/08/06 09:26:21;;;;;;;2.83;0.40;;;;;;;16.44;62.98;102921.50;5035864;28;20021;-77
2022/08/06 09:28:47;;;;;;;1.70;0.68;;;;;;;16.47;62.72;102919.63;5035511;28;20278;-76
2022/08/06 09:31:14;;;;;;;0.70;0.40;;;;;;;16.51;62.74;102918.59;5035825;28;20593;-77
2022/08/06 09:33:42;;;;;;;1.00;0.50;;;;;;;16.59;61.07;102912.19;5029874;28;20046;-77
2022/08/06 09:36:12;;;;;;;0.80;0.32;;;;;;;16.67;61.44;102916.31;5029545;28;20604;-77
2022/08/06 09:38:57;;;;;;;0.47;0.47;;;;;;;16.73;60.73;102917.91;5051484;28;20032;-77
2022/08/06 09:41:25;;;;;;;0.38;0.32;;;;;;;16.77;60.08;102916.00;5034102;28;20308;-77
2022/08/06 09:43:53;;;;;;;0.47;0.40;;;;;;;16.77;60.21;102922.19;5037344;28;20291;-77
2022/08/06 09:46:39;;;;;;;3.22;0.50;;;;;;;16.82;58.62;102919.38;5036743;28;20339;-77
2022/08/06 09:49:05;;;;;;;2.58;0.30;;;;;;;16.84;59.64;102922.88;5037100;28;20249;-77
2022/08/06 09:51:34;;;;;;;1.67;0.40;;;;;;;16.85;59.69;102924.59;5036861;28;20040;-77
2022/08/06 09:54:01;;;;;;;1.77;0.75;;;;;;;16.85;58.83;102914.88;5037456;28;20139;-77
2022/08/06 09:56:27;;;;;;;1.40;0.50;;;;;;;16.86;58.01;102913.97;5023879;28;20336;-77
2022/08/06 09:59:01;;;;;;;2.15;0.40;;;;;;;16.90;59.33;102912.09;5035949;28;20407;-77
2022/08/06 10:01:28;;;;;;;0.65;0.35;;;;;;;16.92;60.53;102915.53;5037577;28;20044;-77
2022/08/06 10:03:56;;;;;;;1.25;0.47;;;;;;;16.95;59.50;102915.41;5036357;28;20029;-77
2022/08/06 10:06:21;;;;;;;0.93;0.20;;;;;;;16.99;59.44;102916.16;5035873;28;20060;-77
2022/08/06 10:08:48;;;;;;;1.05;0.30;;;;;;;17.03;60.38;102921.31;5037216;28;20228;-77
2022/08/06 10:11:15;;;;;;;0.52;0.30;;;;;;;17.06;60.84;102917.69;5037191;28;20032;-77
2022/08/06 10:13:47;;;;;;;0.70;0.32;;;;;;;17.10;61.20;102908.75;5035931;28;20049;-77
2022/08/06 10:16:26;;;;;;;0.30;0.20;;;;;;;17.13;61.15;102905.97;5037042;28;20041;-77
2022/08/06 10:18:53;;;;;;;0.52;0.47;;;;;;;17.18;61.18;102914.63;5035819;28;20048;-77
2022/08/06 10:21:22;;;;;;;0.40;0.30;;;;;;;17.22;60.42;102912.72;5037189;28;20040;-77
2022/08/06 10:23:52;;;;;;;1.60;0.40;;;;;;;17.23;59.86;102917.13;5037578;28;20075;-77
2022/08/06 10:26:31;;;;;;;0.85;0.40;;;;;;;17.23;59.25;102925.91;5036195;28;20261;-77
2022/08/06 10:29:05;;;;;;;0.30;0.30;;;;;;;17.23;58.94;102925.91;5023259;28;20240;-77
2022/08/06 10:31:32;;;;;;;1.15;0.40;;;;;;;17.21;59.48;102917.16;5036384;28;20041;-77
2022/08/06 10:34:04;;;;;;;0.40;0.40;;;;;;;17.19;59.15;102919.00;5027391;28;20026;-77
2022/08/06 10:36:59;;;;;;;0.80;0.57;;;;;;;17.21;58.25;102919.81;5032237;28;20927;-77
2022/08/06 10:39:26;;;;;;;0.63;0.40;;;;;;;17.21;55.97;102919.81;5035144;28;20029;-77
2022/08/06 10:41:54;;;;;;;0.45;0.40;;;;;;;17.25;57.43;102917.91;5031326;28;20045;-77
2022/08/06 10:44:22;;;;;;;0.67;0.30;;;;;;;17.30;57.62;102923.03;5036487;28;20035;-77
2022/08/06 10:46:52;;;;;;;0.50;0.40;;;;;;;17.36;58.18;102920.19;5035340;28;20040;-77
2022/08/06 10:49:20;;;;;;;1.27;0.40;;;;;;;17.40;57.40;102920.00;5036439;28;20041;-77
2022/08/06 10:51:49;;;;;;;0.77;0.30;;;;;;;17.40;57.79;102922.66;5035762;28;20041;-77
2022/08/06 10:54:18;;;;;;;0.50;0.32;;;;;;;17.40;58.52;102919.16;5036572;28;20284;-77
2022/08/06 10:56:45;;;;;;;;;;;;;;;17.38;58.23;102921.00;5037518;28;20439;-77
2022/08/06 10:59:13;;;;;;;0.38;0.38;;;;;;;17.40;57.42;102925.28;5036862;28;19921;-77
2022/08/06 11:02:16;;;;;;;0.73;0.52;;;;;;;17.44;57.17;102926.94;5037060;28;20080;-77
2022/08/06 11:04:53;;;;;;;0.60;0.40;;;;;;;17.48;57.65;102918.84;5024184;28;20025;-77
2022/08/06 11:07:52;;;;;;;0.40;0.40;;;;;;;17.51;57.61;102914.31;5035272;28;20029;-77
2022/08/06 11:10:42;;;;;;;0.40;0.40;;;;;;;17.57;55.42;102907.91;5036021;28;20065;-77
2022/08/06 11:13:29;;;;;;;1.20;0.70;;;;;;;17.68;54.40;102908.38;5036659;28;20420;-77
2022/08/06 11:15:54;;;;;;;1.38;0.60;;;;;;;17.73;56.59;102906.41;5036746;28;20041;-77
2022/08/06 11:18:21;;;;;;;0.93;0.60;;;;;;;17.78;56.23;102907.09;5036527;28;20408;-77
2022/08/06 11:20:52;;;;;;;0.40;0.40;;;;;;;17.83;56.20;102907.81;5036133;28;20025;-77
2022/08/06 11:23:17;;;;;;;2.05;0.88;;;;;;;17.89;55.09;102905.88;5034477;28;20100;-77
2022/08/06 11:25:50;;;;;;;0.70;0.60;;;;;;;17.92;55.31;102903.97;5034597;28;20029;-77
2022/08/06 11:28:29;;;;;;;0.52;0.50;;;;;;;17.94;55.77;102909.22;5035552;28;20056;-78
2022/08/06 11:30:57;;;;;;;0.60;0.60;;;;;;;17.93;54.66;102903.03;5023340;28;20063;-77
2022/08/06 11:33:34;;;;;;;2.05;0.43;;;;;;;17.94;55.22;102906.56;5030941;28;20025;-77
2022/08/06 11:36:04;;;;;;;2.25;0.50;;;;;;;17.92;55.88;102905.72;5028169;28;20289;-77
2022/08/06 11:38:48;;;;;;;1.10;0.65;;;;;;;17.90;55.33;102904.94;5036010;28;20347;-77
2022/08/06 11:41:17;;;;;;;0.60;0.60;;;;;;;17.89;55.95;102900.56;5035314;28;20056;-77
2022/08/06 11:43:49;;;;;;;0.50;0.50;;;;;;;17.87;56.29;102895.31;5035889;28;20255;-77